Terminal Aerodrome Forecast
Issued by NWS

Home | Current Version | Previous Version | Text Only | Print | Product List | Glossary On
Versions: 1 2 3 4 5 6 7 8 9 10 11 12 13 14
000
FTUS45 KTFX 292114 AAA
TAFHVR
TAF AMD
KHVR 292114Z 2921/3018 23011KT P6SM VCSH SCT050 BKN100
      TEMPO 2921/2924 VRB15G30KT -TSRA BKN035CB
     FM300300 24006KT P6SM SCT080 SCT200
     FM301400 23011KT P6SM BKN060=

USA.gov is the U.S. government's official web portal to all federal, state and local government web resources and services.